Meteo Giornale » Osservazioni meteo Italia » Torino-Caselle

ore: 23:50 - Osservazioni Meteo Torino-Caselle
Lat. 45° 13' N Lon. 7° 39' E Alt. 301 metri s.l.m.

sereno Europe/Rome

8 °C

Sereno

Temp. 24 Ore

6 °C

21 °C

Nord

5.5 Km/h

Dew point 0 °C

Umidità 56 %

Visibilità  10 Km

Il sole sorge alle ore 06:24

Il sole tramonta alle ore 18:46

Data e Ora Cielo e Fenomeni T °C DP °C Um. % Pres. hPa Vis. km Vento km/h
Ieri h: 23:50 sereno Sereno 8 0 56 1024 10 N 5.5
Ieri h: 23:20 sereno Sereno 10 -1 46 1024 10 N 9.3
Ieri h: 22:50 sereno Sereno 12 -1 40 1024 10 O/NO 11.1
Ieri h: 22:20 sereno Sereno 14 -1 35 1024 10 O/NO 7.4
Ieri h: 21:50 sereno Sereno 13 -0 40 1024 10 NO 11.1
Ieri h: 21:20 sereno Sereno 14 -1 35 1024 10 N/NO 9.3
Ieri h: 20:50 sereno Sereno 14 -1 35 1024 10 NO 7.4
Ieri h: 20:20 sereno Sereno 16 -1 31 1024 10 O/NO 7.4
Ieri h: 19:50 sereno Sereno 16 -2 29 1023 10 N 5.5
Ieri h: 19:20 sereno Sereno 18 -4 22 1023 10 N 3.7
Ieri h: 18:50 sereno Sereno 19 -4 20 1023 10 N 5.5
Ieri h: 18:20 sereno Sereno 20 -5 18 1023 10 N 3.7
Ieri h: 17:50 sereno Sereno 20 -1 24 1023 10 N 5.5
Ieri h: 17:20 sereno Sereno 21 -0 24 1023 10 N 5.5
Ieri h: 16:50 sereno Sereno 21 -3 19 1023 10 N 5.5
Ieri h: 16:20 sereno Sereno 21 -3 19 1023 10 N 3.7
Ieri h: 15:50 sereno Sereno 21 -3 19 1023 10 N 3.7
Ieri h: 15:20 sereno Sereno 20 -2 22 1023 10 N 5.5
Ieri h: 14:50 sereno Sereno 20 -3 20 1024 10 N 3.7
Ieri h: 14:20 sereno Sereno 20 -2 22 1024 10 N 3.7
Ieri h: 13:50 sereno Sereno 20 -4 19 1024 10 N 3.7
Ieri h: 13:20 sereno Sereno 20 -2 22 1025 10 N 5.5
Ieri h: 12:50 sereno Sereno 19 -3 22 1025 10 N 3.7
Ieri h: 12:20 sereno Sereno 19 -4 20 1026 10 N 3.7
Ieri h: 11:50 sereno Sereno 18 -1 27 1026 10 N 3.7
Ieri h: 10:50 sereno Sereno 16 -1 31 1026 10 N 5.5
Ieri h: 10:20 sereno Sereno 15 -0 35 1026 10 N 5.5
Ieri h: 09:50 sereno Sereno 15 -3 28 1026 10 N 3.7
Ieri h: 09:20 sereno Sereno 13 -3 32 1026 10 N 3.7
Ieri h: 08:50 sereno Sereno 12 -4 32 1026 10 N 1.8
Ieri h: 08:20 sereno Sereno 10 -3 39 1026 10 N 5.5
Ieri h: 07:50 sereno Sereno 9 -3 42 1026 10 N 5.5
Ieri h: 07:20 sereno Sereno 6 -5 45 1026 10 O/NO 11.1
Ieri h: 06:50 sereno Sereno 7 -5 42 1026 10 O/NO 11.1
Ieri h: 06:20 sereno Sereno 6 -5 45 1026 10 O/NO 11.1
Ieri h: 05:50 sereno Sereno 6 -5 45 1026 10 O/NO 9.3
Ieri h: 05:20 sereno Sereno 7 -5 42 1026 10 NO 7.4
Ieri h: 04:50 sereno Sereno 7 -5 42 1026 10 O/NO 9.3
Ieri h: 04:20 sereno Sereno 7 -5 42 1026 10 N 5.5
Ieri h: 03:50 sereno Sereno 6 -4 48 1026 10 N 5.5
Ieri h: 03:20 sereno Sereno 7 -5 42 1026 10 O/NO 9.3
Ieri h: 01:50 sereno Sereno 8 -4 42 1027 10 O/NO 9.3
Ieri h: 01:20 sereno Sereno 10 -4 36 1027 10 N/NO 7.4
Ieri h: 00:50 sereno Sereno 8 -3 45 1027 10 N/NO 7.4
Ieri h: 00:20 sereno Sereno 9 -3 42 1027 10 N 5.5
Ieri h: 23:50 sereno Sereno 10 -3 39 1027 10 N/NO 9.3